sensor_id;sensor_type;location;lat;lon;timestamp;P1;durP1;ratioP1;P2;durP2;ratioP2
56331;SDS011;42237;53.340;6.812;2022-09-13T00:00:30;21.55;;;16.52;;
56331;SDS011;42237;53.340;6.812;2022-09-13T00:02:56;21.45;;;16.20;;
56331;SDS011;42237;53.340;6.812;2022-09-13T00:05:22;20.02;;;15.73;;
56331;SDS011;42237;53.340;6.812;2022-09-13T00:07:47;22.42;;;15.50;;
56331;SDS011;42237;53.340;6.812;2022-09-13T00:10:13;23.20;;;15.63;;
56331;SDS011;42237;53.340;6.812;2022-09-13T00:12:39;21.02;;;15.57;;
56331;SDS011;42237;53.340;6.812;2022-09-13T00:15:05;24.55;;;17.20;;
56331;SDS011;42237;53.340;6.812;2022-09-13T00:17:32;21.73;;;16.33;;
56331;SDS011;42237;53.340;6.812;2022-09-13T00:19:57;23.77;;;17.33;;
56331;SDS011;42237;53.340;6.812;2022-09-13T00:22:23;24.63;;;16.30;;
56331;SDS011;42237;53.340;6.812;2022-09-13T00:24:49;24.48;;;17.15;;
56331;SDS011;42237;53.340;6.812;2022-09-13T00:27:14;21.52;;;16.17;;
56331;SDS011;42237;53.340;6.812;2022-09-13T00:29:40;21.80;;;15.60;;
56331;SDS011;42237;53.340;6.812;2022-09-13T00:32:06;24.60;;;16.80;;
56331;SDS011;42237;53.340;6.812;2022-09-13T00:34:31;22.10;;;17.00;;
56331;SDS011;42237;53.340;6.812;2022-09-13T00:36:57;23.48;;;16.52;;
56331;SDS011;42237;53.340;6.812;2022-09-13T00:39:23;24.92;;;15.98;;
56331;SDS011;42237;53.340;6.812;2022-09-13T00:41:49;22.77;;;16.13;;
56331;SDS011;42237;53.340;6.812;2022-09-13T00:47:18;17.70;;;13.38;;
56331;SDS011;42237;53.340;6.812;2022-09-13T00:50:00;16.70;;;12.68;;
56331;SDS011;42237;53.340;6.812;2022-09-13T00:52:29;17.42;;;11.68;;
56331;SDS011;42237;53.340;6.812;2022-09-13T00:55:02;15.27;;;11.27;;
56331;SDS011;42237;53.340;6.812;2022-09-13T00:57:31;16.23;;;11.38;;
56331;SDS011;42237;53.340;6.812;2022-09-13T01:02:35;15.13;;;11.52;;
56331;SDS011;42237;53.340;6.812;2022-09-13T01:05:01;16.38;;;11.60;;
56331;SDS011;42237;53.340;6.812;2022-09-13T01:07:27;14.65;;;11.70;;
56331;SDS011;42237;53.340;6.812;2022-09-13T01:09:53;17.00;;;11.38;;
56331;SDS011;42237;53.340;6.812;2022-09-13T01:12:37;16.92;;;11.75;;
56331;SDS011;42237;53.340;6.812;2022-09-13T01:15:11;14.65;;;10.95;;
56331;SDS011;42237;53.340;6.812;2022-09-13T01:17:36;13.05;;;9.57;;
56331;SDS011;42237;53.340;6.812;2022-09-13T01:20:03;13.95;;;10.27;;
56331;SDS011;42237;53.340;6.812;2022-09-13T01:31:05;16.15;;;12.07;;
56331;SDS011;42237;53.340;6.812;2022-09-13T01:36:19;17.30;;;13.55;;
56331;SDS011;42237;53.340;6.812;2022-09-13T01:39:05;18.45;;;13.35;;
56331;SDS011;42237;53.340;6.812;2022-09-13T01:50:01;27.65;;;18.00;;
56331;SDS011;42237;53.340;6.812;2022-09-13T01:52:32;25.58;;;17.23;;
56331;SDS011;42237;53.340;6.812;2022-09-13T01:55:05;23.40;;;17.25;;
56331;SDS011;42237;53.340;6.812;2022-09-13T01:57:37;29.63;;;18.58;;
56331;SDS011;42237;53.340;6.812;2022-09-13T02:00:11;24.15;;;16.50;;
56331;SDS011;42237;53.340;6.812;2022-09-13T02:05:42;21.58;;;15.57;;
56331;SDS011;42237;53.340;6.812;2022-09-13T02:08:17;24.98;;;16.63;;
56331;SDS011;42237;53.340;6.812;2022-09-13T02:10:48;21.63;;;15.30;;
56331;SDS011;42237;53.340;6.812;2022-09-13T02:13:20;20.52;;;15.38;;
56331;SDS011;42237;53.340;6.812;2022-09-13T02:15:51;23.38;;;16.33;;
56331;SDS011;42237;53.340;6.812;2022-09-13T02:18:34;25.08;;;17.02;;
56331;SDS011;42237;53.340;6.812;2022-09-13T02:21:14;23.30;;;15.77;;
56331;SDS011;42237;53.340;6.812;2022-09-13T02:23:49;22.50;;;16.35;;
56331;SDS011;42237;53.340;6.812;2022-09-13T02:26:17;21.98;;;15.43;;
56331;SDS011;42237;53.340;6.812;2022-09-13T02:28:51;21.98;;;15.48;;
56331;SDS011;42237;53.340;6.812;2022-09-13T02:31:25;22.05;;;15.10;;
56331;SDS011;42237;53.340;6.812;2022-09-13T02:34:02;22.48;;;14.50;;
56331;SDS011;42237;53.340;6.812;2022-09-13T02:36:37;19.70;;;14.23;;
56331;SDS011;42237;53.340;6.812;2022-09-13T02:39:10;19.63;;;13.63;;
56331;SDS011;42237;53.340;6.812;2022-09-13T02:44:15;20.85;;;15.52;;
56331;SDS011;42237;53.340;6.812;2022-09-13T02:52:25;22.33;;;15.63;;
56331;SDS011;42237;53.340;6.812;2022-09-13T03:00:14;16.95;;;12.23;;
56331;SDS011;42237;53.340;6.812;2022-09-13T03:02:40;14.57;;;11.00;;
56331;SDS011;42237;53.340;6.812;2022-09-13T03:05:08;14.95;;;10.73;;
56331;SDS011;42237;53.340;6.812;2022-09-13T03:07:34;12.35;;;9.13;;
56331;SDS011;42237;53.340;6.812;2022-09-13T03:10:01;12.38;;;9.70;;
56331;SDS011;42237;53.340;6.812;2022-09-13T03:18:39;12.88;;;8.38;;
56331;SDS011;42237;53.340;6.812;2022-09-13T03:30:06;9.40;;;6.22;;
56331;SDS011;42237;53.340;6.812;2022-09-13T03:38:23;6.75;;;5.32;;
56331;SDS011;42237;53.340;6.812;2022-09-13T03:41:12;8.43;;;4.78;;
56331;SDS011;42237;53.340;6.812;2022-09-13T03:43:47;6.63;;;4.22;;
56331;SDS011;42237;53.340;6.812;2022-09-13T03:46:27;6.10;;;4.00;;
56331;SDS011;42237;53.340;6.812;2022-09-13T03:48:56;6.57;;;4.20;;
56331;SDS011;42237;53.340;6.812;2022-09-13T03:51:26;8.57;;;3.90;;
56331;SDS011;42237;53.340;6.812;2022-09-13T03:53:53;5.90;;;3.72;;
56331;SDS011;42237;53.340;6.812;2022-09-13T03:56:22;8.50;;;3.92;;
56331;SDS011;42237;53.340;6.812;2022-09-13T03:58:48;5.70;;;3.53;;
56331;SDS011;42237;53.340;6.812;2022-09-13T04:01:18;6.03;;;3.75;;
56331;SDS011;42237;53.340;6.812;2022-09-13T04:03:46;7.07;;;3.97;;
56331;SDS011;42237;53.340;6.812;2022-09-13T04:06:12;7.20;;;3.92;;
56331;SDS011;42237;53.340;6.812;2022-09-13T04:08:38;6.32;;;3.80;;
56331;SDS011;42237;53.340;6.812;2022-09-13T04:11:03;8.10;;;4.60;;
56331;SDS011;42237;53.340;6.812;2022-09-13T04:13:29;6.32;;;4.35;;
56331;SDS011;42237;53.340;6.812;2022-09-13T04:15:59;7.25;;;4.43;;
56331;SDS011;42237;53.340;6.812;2022-09-13T04:18:26;6.40;;;3.95;;
56331;SDS011;42237;53.340;6.812;2022-09-13T04:20:53;6.43;;;3.75;;
56331;SDS011;42237;53.340;6.812;2022-09-13T04:23:20;5.00;;;3.63;;
56331;SDS011;42237;53.340;6.812;2022-09-13T04:25:46;6.60;;;3.65;;
56331;SDS011;42237;53.340;6.812;2022-09-13T04:28:12;9.50;;;3.63;;
56331;SDS011;42237;53.340;6.812;2022-09-13T04:30:37;4.43;;;3.17;;
56331;SDS011;42237;53.340;6.812;2022-09-13T04:33:03;6.22;;;3.30;;
56331;SDS011;42237;53.340;6.812;2022-09-13T04:35:29;3.58;;;2.60;;
56331;SDS011;42237;53.340;6.812;2022-09-13T04:37:55;4.93;;;2.70;;
56331;SDS011;42237;53.340;6.812;2022-09-13T04:40:23;6.15;;;2.35;;
56331;SDS011;42237;53.340;6.812;2022-09-13T04:42:49;7.07;;;2.72;;
56331;SDS011;42237;53.340;6.812;2022-09-13T04:45:15;9.02;;;2.70;;
56331;SDS011;42237;53.340;6.812;2022-09-13T04:47:41;4.40;;;2.63;;
56331;SDS011;42237;53.340;6.812;2022-09-13T04:50:06;4.10;;;2.38;;
56331;SDS011;42237;53.340;6.812;2022-09-13T04:52:34;4.47;;;2.40;;
56331;SDS011;42237;53.340;6.812;2022-09-13T04:55:00;5.38;;;2.75;;
56331;SDS011;42237;53.340;6.812;2022-09-13T04:57:26;5.55;;;3.13;;
56331;SDS011;42237;53.340;6.812;2022-09-13T04:59:53;6.45;;;2.70;;
56331;SDS011;42237;53.340;6.812;2022-09-13T05:02:18;4.32;;;2.60;;
56331;SDS011;42237;53.340;6.812;2022-09-13T05:04:44;4.68;;;2.70;;
56331;SDS011;42237;53.340;6.812;2022-09-13T05:07:10;4.72;;;2.90;;
56331;SDS011;42237;53.340;6.812;2022-09-13T05:09:35;4.13;;;3.20;;
56331;SDS011;42237;53.340;6.812;2022-09-13T05:12:01;5.25;;;2.40;;
56331;SDS011;42237;53.340;6.812;2022-09-13T05:14:27;6.90;;;2.70;;
56331;SDS011;42237;53.340;6.812;2022-09-13T05:16:53;5.10;;;2.70;;
56331;SDS011;42237;53.340;6.812;2022-09-13T05:19:19;3.85;;;1.95;;
56331;SDS011;42237;53.340;6.812;2022-09-13T05:21:45;6.60;;;1.60;;
56331;SDS011;42237;53.340;6.812;2022-09-13T05:24:10;5.15;;;1.77;;
56331;SDS011;42237;53.340;6.812;2022-09-13T05:26:36;5.95;;;1.73;;
56331;SDS011;42237;53.340;6.812;2022-09-13T05:29:02;5.22;;;1.38;;
56331;SDS011;42237;53.340;6.812;2022-09-13T05:31:33;4.55;;;1.90;;
56331;SDS011;42237;53.340;6.812;2022-09-13T05:34:01;5.07;;;1.85;;
56331;SDS011;42237;53.340;6.812;2022-09-13T05:36:30;7.60;;;1.90;;
56331;SDS011;42237;53.340;6.812;2022-09-13T05:38:56;7.78;;;1.77;;
56331;SDS011;42237;53.340;6.812;2022-09-13T05:41:22;5.20;;;1.92;;
56331;SDS011;42237;53.340;6.812;2022-09-13T05:43:48;7.38;;;1.92;;
56331;SDS011;42237;53.340;6.812;2022-09-13T05:46:15;4.13;;;1.70;;
56331;SDS011;42237;53.340;6.812;2022-09-13T05:48:42;6.47;;;2.00;;
56331;SDS011;42237;53.340;6.812;2022-09-13T05:51:09;4.28;;;1.75;;
56331;SDS011;42237;53.340;6.812;2022-09-13T05:53:37;13.85;;;2.80;;
56331;SDS011;42237;53.340;6.812;2022-09-13T05:56:04;5.80;;;1.60;;
56331;SDS011;42237;53.340;6.812;2022-09-13T05:58:31;8.98;;;2.60;;
56331;SDS011;42237;53.340;6.812;2022-09-13T06:00:58;8.48;;;2.22;;
56331;SDS011;42237;53.340;6.812;2022-09-13T06:03:24;7.15;;;1.80;;
56331;SDS011;42237;53.340;6.812;2022-09-13T06:05:53;6.35;;;1.80;;
56331;SDS011;42237;53.340;6.812;2022-09-13T06:08:20;6.05;;;1.77;;
56331;SDS011;42237;53.340;6.812;2022-09-13T06:10:56;9.38;;;1.95;;
56331;SDS011;42237;53.340;6.812;2022-09-13T06:13:40;4.63;;;1.52;;
56331;SDS011;42237;53.340;6.812;2022-09-13T06:16:11;5.05;;;1.88;;
56331;SDS011;42237;53.340;6.812;2022-09-13T06:18:38;9.40;;;2.35;;
56331;SDS011;42237;53.340;6.812;2022-09-13T06:21:22;5.93;;;1.92;;
56331;SDS011;42237;53.340;6.812;2022-09-13T06:23:48;5.53;;;2.05;;
56331;SDS011;42237;53.340;6.812;2022-09-13T06:26:17;4.53;;;1.35;;
56331;SDS011;42237;53.340;6.812;2022-09-13T06:28:48;10.02;;;2.00;;
56331;SDS011;42237;53.340;6.812;2022-09-13T06:31:15;8.48;;;2.03;;
56331;SDS011;42237;53.340;6.812;2022-09-13T06:33:42;5.88;;;1.95;;
56331;SDS011;42237;53.340;6.812;2022-09-13T06:36:09;7.50;;;2.25;;
56331;SDS011;42237;53.340;6.812;2022-09-13T06:38:36;3.95;;;1.42;;
56331;SDS011;42237;53.340;6.812;2022-09-13T06:41:04;6.53;;;1.70;;
56331;SDS011;42237;53.340;6.812;2022-09-13T06:43:34;5.85;;;1.58;;
56331;SDS011;42237;53.340;6.812;2022-09-13T06:46:07;2.38;;;1.10;;
56331;SDS011;42237;53.340;6.812;2022-09-13T06:48:35;2.78;;;1.13;;
56331;SDS011;42237;53.340;6.812;2022-09-13T06:51:03;2.97;;;1.20;;
56331;SDS011;42237;53.340;6.812;2022-09-13T06:53:34;4.47;;;1.08;;
56331;SDS011;42237;53.340;6.812;2022-09-13T06:58:28;5.20;;;1.10;;
56331;SDS011;42237;53.340;6.812;2022-09-13T07:01:03;3.72;;;0.98;;
56331;SDS011;42237;53.340;6.812;2022-09-13T07:03:44;4.27;;;1.00;;
56331;SDS011;42237;53.340;6.812;2022-09-13T07:06:15;5.97;;;1.20;;
56331;SDS011;42237;53.340;6.812;2022-09-13T07:08:43;6.07;;;0.98;;
56331;SDS011;42237;53.340;6.812;2022-09-13T07:11:11;6.05;;;1.15;;
56331;SDS011;42237;53.340;6.812;2022-09-13T07:13:38;12.00;;;1.92;;
56331;SDS011;42237;53.340;6.812;2022-09-13T07:16:04;1.73;;;0.90;;
56331;SDS011;42237;53.340;6.812;2022-09-13T07:18:35;4.60;;;1.00;;
56331;SDS011;42237;53.340;6.812;2022-09-13T07:21:02;4.03;;;0.95;;
56331;SDS011;42237;53.340;6.812;2022-09-13T07:23:33;3.42;;;0.90;;
56331;SDS011;42237;53.340;6.812;2022-09-13T07:26:01;4.60;;;1.13;;
56331;SDS011;42237;53.340;6.812;2022-09-13T07:31:03;4.70;;;1.30;;
56331;SDS011;42237;53.340;6.812;2022-09-13T07:33:30;4.60;;;1.20;;
56331;SDS011;42237;53.340;6.812;2022-09-13T07:35:56;6.50;;;1.23;;
56331;SDS011;42237;53.340;6.812;2022-09-13T07:38:23;5.68;;;1.38;;
56331;SDS011;42237;53.340;6.812;2022-09-13T07:40:55;4.80;;;1.20;;
56331;SDS011;42237;53.340;6.812;2022-09-13T07:43:26;4.07;;;1.00;;
56331;SDS011;42237;53.340;6.812;2022-09-13T07:45:56;3.35;;;0.95;;
56331;SDS011;42237;53.340;6.812;2022-09-13T07:48:48;5.32;;;1.02;;
56331;SDS011;42237;53.340;6.812;2022-09-13T07:51:20;5.22;;;1.40;;
56331;SDS011;42237;53.340;6.812;2022-09-13T07:53:48;4.20;;;1.08;;
56331;SDS011;42237;53.340;6.812;2022-09-13T07:56:19;8.00;;;1.63;;
56331;SDS011;42237;53.340;6.812;2022-09-13T07:58:47;6.90;;;1.30;;
56331;SDS011;42237;53.340;6.812;2022-09-13T08:01:21;5.80;;;1.25;;
56331;SDS011;42237;53.340;6.812;2022-09-13T08:03:58;4.95;;;1.10;;
56331;SDS011;42237;53.340;6.812;2022-09-13T08:06:27;5.50;;;0.80;;
56331;SDS011;42237;53.340;6.812;2022-09-13T08:08:54;5.97;;;1.10;;
56331;SDS011;42237;53.340;6.812;2022-09-13T08:11:21;5.03;;;1.27;;
56331;SDS011;42237;53.340;6.812;2022-09-13T08:13:54;3.47;;;1.10;;
56331;SDS011;42237;53.340;6.812;2022-09-13T08:16:21;2.83;;;0.82;;
56331;SDS011;42237;53.340;6.812;2022-09-13T08:18:49;4.72;;;1.17;;
56331;SDS011;42237;53.340;6.812;2022-09-13T08:21:16;4.72;;;1.50;;
56331;SDS011;42237;53.340;6.812;2022-09-13T08:23:42;3.17;;;1.27;;
56331;SDS011;42237;53.340;6.812;2022-09-13T08:26:09;3.80;;;0.90;;
56331;SDS011;42237;53.340;6.812;2022-09-13T08:28:36;5.70;;;1.38;;
56331;SDS011;42237;53.340;6.812;2022-09-13T08:33:30;6.63;;;1.25;;
56331;SDS011;42237;53.340;6.812;2022-09-13T08:35:56;9.38;;;1.75;;
56331;SDS011;42237;53.340;6.812;2022-09-13T08:38:23;4.28;;;0.90;;
56331;SDS011;42237;53.340;6.812;2022-09-13T08:40:50;2.78;;;0.70;;
56331;SDS011;42237;53.340;6.812;2022-09-13T08:46:10;4.35;;;0.90;;
56331;SDS011;42237;53.340;6.812;2022-09-13T08:49:00;3.17;;;0.75;;
56331;SDS011;42237;53.340;6.812;2022-09-13T08:51:32;5.78;;;1.23;;
56331;SDS011;42237;53.340;6.812;2022-09-13T08:54:04;4.60;;;0.80;;
56331;SDS011;42237;53.340;6.812;2022-09-13T08:59:19;3.80;;;1.35;;
56331;SDS011;42237;53.340;6.812;2022-09-13T09:07:31;9.50;;;1.20;;
56331;SDS011;42237;53.340;6.812;2022-09-13T09:12:58;12.25;;;1.02;;
56331;SDS011;42237;53.340;6.812;2022-09-13T09:15:33;6.95;;;1.10;;
56331;SDS011;42237;53.340;6.812;2022-09-13T09:18:05;2.60;;;0.80;;
56331;SDS011;42237;53.340;6.812;2022-09-13T09:20:42;3.53;;;1.10;;
56331;SDS011;42237;53.340;6.812;2022-09-13T09:23:17;5.22;;;0.80;;
56331;SDS011;42237;53.340;6.812;2022-09-13T09:25:45;5.97;;;0.70;;
56331;SDS011;42237;53.340;6.812;2022-09-13T09:28:12;5.07;;;0.80;;
56331;SDS011;42237;53.340;6.812;2022-09-13T09:33:27;3.35;;;0.80;;
56331;SDS011;42237;53.340;6.812;2022-09-13T09:36:21;4.82;;;0.88;;
56331;SDS011;42237;53.340;6.812;2022-09-13T09:38:49;1.70;;;0.80;;
56331;SDS011;42237;53.340;6.812;2022-09-13T09:41:21;9.95;;;1.23;;
56331;SDS011;42237;53.340;6.812;2022-09-13T09:46:22;4.85;;;0.90;;
56331;SDS011;42237;53.340;6.812;2022-09-13T09:48:53;5.95;;;1.25;;
56331;SDS011;42237;53.340;6.812;2022-09-13T09:51:21;6.03;;;0.90;;
56331;SDS011;42237;53.340;6.812;2022-09-13T09:53:51;4.93;;;0.90;;
56331;SDS011;42237;53.340;6.812;2022-09-13T09:58:55;6.15;;;1.15;;
56331;SDS011;42237;53.340;6.812;2022-09-13T10:01:22;4.80;;;1.23;;
56331;SDS011;42237;53.340;6.812;2022-09-13T10:06:34;3.53;;;0.95;;
56331;SDS011;42237;53.340;6.812;2022-09-13T10:09:03;6.43;;;0.85;;
56331;SDS011;42237;53.340;6.812;2022-09-13T10:11:45;3.13;;;0.70;;
56331;SDS011;42237;53.340;6.812;2022-09-13T10:14:42;4.70;;;0.60;;
56331;SDS011;42237;53.340;6.812;2022-09-13T10:19:52;3.65;;;0.90;;
56331;SDS011;42237;53.340;6.812;2022-09-13T10:22:18;9.02;;;0.90;;
56331;SDS011;42237;53.340;6.812;2022-09-13T10:24:45;5.90;;;0.90;;
56331;SDS011;42237;53.340;6.812;2022-09-13T10:30:04;5.15;;;1.20;;
56331;SDS011;42237;53.340;6.812;2022-09-13T10:32:31;3.35;;;0.70;;
56331;SDS011;42237;53.340;6.812;2022-09-13T10:35:00;2.95;;;0.68;;
56331;SDS011;42237;53.340;6.812;2022-09-13T10:37:33;2.08;;;0.50;;
56331;SDS011;42237;53.340;6.812;2022-09-13T10:40:04;4.20;;;0.82;;
56331;SDS011;42237;53.340;6.812;2022-09-13T10:42:40;6.07;;;0.70;;
56331;SDS011;42237;53.340;6.812;2022-09-13T10:45:23;5.28;;;1.15;;
56331;SDS011;42237;53.340;6.812;2022-09-13T10:47:52;5.50;;;1.13;;
56331;SDS011;42237;53.340;6.812;2022-09-13T10:50:25;5.63;;;0.73;;
56331;SDS011;42237;53.340;6.812;2022-09-13T10:52:53;6.45;;;1.02;;
56331;SDS011;42237;53.340;6.812;2022-09-13T11:00:29;5.40;;;1.05;;
56331;SDS011;42237;53.340;6.812;2022-09-13T11:02:58;3.47;;;0.82;;
56331;SDS011;42237;53.340;6.812;2022-09-13T11:19:11;3.47;;;0.93;;
56331;SDS011;42237;53.340;6.812;2022-09-13T11:28:00;6.20;;;1.33;;
56331;SDS011;42237;53.340;6.812;2022-09-13T11:30:29;5.53;;;0.90;;
56331;SDS011;42237;53.340;6.812;2022-09-13T11:36:06;6.65;;;1.10;;
56331;SDS011;42237;53.340;6.812;2022-09-13T11:41:28;5.03;;;1.58;;
56331;SDS011;42237;53.340;6.812;2022-09-13T11:49:54;4.05;;;0.80;;
56331;SDS011;42237;53.340;6.812;2022-09-13T11:57:46;9.20;;;1.30;;
56331;SDS011;42237;53.340;6.812;2022-09-13T12:00:19;6.00;;;1.00;;
56331;SDS011;42237;53.340;6.812;2022-09-13T12:05:46;5.45;;;0.90;;
56331;SDS011;42237;53.340;6.812;2022-09-13T12:08:23;6.30;;;1.13;;
56331;SDS011;42237;53.340;6.812;2022-09-13T12:13:53;5.00;;;1.17;;
56331;SDS011;42237;53.340;6.812;2022-09-13T12:16:27;4.63;;;0.90;;
56331;SDS011;42237;53.340;6.812;2022-09-13T12:19:10;7.30;;;1.38;;
56331;SDS011;42237;53.340;6.812;2022-09-13T12:21:39;4.45;;;1.17;;
56331;SDS011;42237;53.340;6.812;2022-09-13T12:24:17;4.85;;;1.00;;
56331;SDS011;42237;53.340;6.812;2022-09-13T12:27:38;5.72;;;1.08;;
56331;SDS011;42237;53.340;6.812;2022-09-13T12:29:49;7.13;;;1.02;;
56331;SDS011;42237;53.340;6.812;2022-09-13T12:32:17;5.32;;;0.90;;
56331;SDS011;42237;53.340;6.812;2022-09-13T12:45:50;6.30;;;1.00;;
56331;SDS011;42237;53.340;6.812;2022-09-13T12:51:07;5.43;;;0.70;;
56331;SDS011;42237;53.340;6.812;2022-09-13T12:59:09;5.47;;;1.20;;
56331;SDS011;42237;53.340;6.812;2022-09-13T13:02:18;5.00;;;1.25;;
56331;SDS011;42237;53.340;6.812;2022-09-13T13:04:49;6.00;;;1.70;;
56331;SDS011;42237;53.340;6.812;2022-09-13T13:07:19;4.75;;;1.17;;
56331;SDS011;42237;53.340;6.812;2022-09-13T13:09:48;5.63;;;1.30;;
56331;SDS011;42237;53.340;6.812;2022-09-13T13:12:36;7.07;;;1.00;;
56331;SDS011;42237;53.340;6.812;2022-09-13T13:15:05;4.85;;;1.10;;
56331;SDS011;42237;53.340;6.812;2022-09-13T13:17:52;6.35;;;1.00;;
56331;SDS011;42237;53.340;6.812;2022-09-13T13:31:31;7.75;;;1.00;;
56331;SDS011;42237;53.340;6.812;2022-09-13T13:39:09;4.03;;;1.03;;
56331;SDS011;42237;53.340;6.812;2022-09-13T14:00:13;6.68;;;1.08;;
56331;SDS011;42237;53.340;6.812;2022-09-13T14:02:45;6.30;;;0.90;;
56331;SDS011;42237;53.340;6.812;2022-09-13T14:05:21;4.68;;;0.88;;
56331;SDS011;42237;53.340;6.812;2022-09-13T14:08:36;5.90;;;1.10;;
56331;SDS011;42237;53.340;6.812;2022-09-13T14:19:47;5.63;;;0.88;;
56331;SDS011;42237;53.340;6.812;2022-09-13T14:24:52;3.28;;;0.80;;
56331;SDS011;42237;53.340;6.812;2022-09-13T14:27:26;3.42;;;0.70;;
56331;SDS011;42237;53.340;6.812;2022-09-13T14:30:00;3.88;;;1.02;;
56331;SDS011;42237;53.340;6.812;2022-09-13T14:32:29;2.60;;;0.50;;
56331;SDS011;42237;53.340;6.812;2022-09-13T14:35:21;4.55;;;0.80;;
56331;SDS011;42237;53.340;6.812;2022-09-13T14:43:15;3.55;;;0.80;;
56331;SDS011;42237;53.340;6.812;2022-09-13T14:45:44;4.38;;;0.70;;
56331;SDS011;42237;53.340;6.812;2022-09-13T14:48:23;4.28;;;0.60;;
56331;SDS011;42237;53.340;6.812;2022-09-13T14:50:56;3.22;;;0.65;;
56331;SDS011;42237;53.340;6.812;2022-09-13T14:53:28;4.15;;;1.15;;
56331;SDS011;42237;53.340;6.812;2022-09-13T14:56:11;5.68;;;0.68;;
56331;SDS011;42237;53.340;6.812;2022-09-13T14:58:58;3.35;;;0.60;;
56331;SDS011;42237;53.340;6.812;2022-09-13T15:01:30;4.30;;;0.80;;
56331;SDS011;42237;53.340;6.812;2022-09-13T15:04:00;2.60;;;0.50;;
56331;SDS011;42237;53.340;6.812;2022-09-13T15:06:30;2.85;;;0.80;;
56331;SDS011;42237;53.340;6.812;2022-09-13T15:09:25;2.55;;;0.60;;
56331;SDS011;42237;53.340;6.812;2022-09-13T15:16:58;6.82;;;0.98;;
56331;SDS011;42237;53.340;6.812;2022-09-13T15:24:54;5.03;;;0.70;;
56331;SDS011;42237;53.340;6.812;2022-09-13T15:27:41;4.13;;;0.60;;
56331;SDS011;42237;53.340;6.812;2022-09-13T15:30:18;3.67;;;0.52;;
56331;SDS011;42237;53.340;6.812;2022-09-13T15:32:46;2.20;;;0.40;;
56331;SDS011;42237;53.340;6.812;2022-09-13T15:35:17;2.92;;;0.40;;
56331;SDS011;42237;53.340;6.812;2022-09-13T15:37:56;2.53;;;0.68;;
56331;SDS011;42237;53.340;6.812;2022-09-13T15:40:28;4.47;;;0.65;;
56331;SDS011;42237;53.340;6.812;2022-09-13T15:43:05;2.78;;;0.55;;
56331;SDS011;42237;53.340;6.812;2022-09-13T15:45:31;2.17;;;0.50;;
56331;SDS011;42237;53.340;6.812;2022-09-13T15:47:56;2.45;;;0.60;;
56331;SDS011;42237;53.340;6.812;2022-09-13T15:50:26;2.72;;;0.70;;
56331;SDS011;42237;53.340;6.812;2022-09-13T15:52:55;3.22;;;0.50;;
56331;SDS011;42237;53.340;6.812;2022-09-13T15:55:22;2.33;;;0.70;;
56331;SDS011;42237;53.340;6.812;2022-09-13T15:57:49;5.20;;;0.82;;
56331;SDS011;42237;53.340;6.812;2022-09-13T16:00:16;4.70;;;0.60;;
56331;SDS011;42237;53.340;6.812;2022-09-13T16:02:50;6.05;;;0.80;;
56331;SDS011;42237;53.340;6.812;2022-09-13T16:05:17;3.88;;;0.63;;
56331;SDS011;42237;53.340;6.812;2022-09-13T16:07:43;4.45;;;0.88;;
56331;SDS011;42237;53.340;6.812;2022-09-13T16:10:10;5.03;;;0.70;;
56331;SDS011;42237;53.340;6.812;2022-09-13T16:12:44;4.22;;;0.80;;
56331;SDS011;42237;53.340;6.812;2022-09-13T16:15:10;6.40;;;1.33;;
56331;SDS011;42237;53.340;6.812;2022-09-13T16:17:37;5.13;;;2.08;;
56331;SDS011;42237;53.340;6.812;2022-09-13T16:20:03;4.13;;;1.15;;
56331;SDS011;42237;53.340;6.812;2022-09-13T16:22:32;8.13;;;1.80;;
56331;SDS011;42237;53.340;6.812;2022-09-13T16:24:58;4.22;;;1.35;;
56331;SDS011;42237;53.340;6.812;2022-09-13T16:27:23;3.58;;;0.90;;
56331;SDS011;42237;53.340;6.812;2022-09-13T16:29:52;4.53;;;0.75;;
56331;SDS011;42237;53.340;6.812;2022-09-13T16:32:19;3.80;;;0.63;;
56331;SDS011;42237;53.340;6.812;2022-09-13T16:34:45;3.33;;;0.60;;
56331;SDS011;42237;53.340;6.812;2022-09-13T16:37:15;4.35;;;0.60;;
56331;SDS011;42237;53.340;6.812;2022-09-13T16:39:42;5.18;;;0.82;;
56331;SDS011;42237;53.340;6.812;2022-09-13T16:42:08;2.70;;;0.50;;
56331;SDS011;42237;53.340;6.812;2022-09-13T16:44:34;5.18;;;0.65;;
56331;SDS011;42237;53.340;6.812;2022-09-13T16:47:00;3.95;;;0.40;;
56331;SDS011;42237;53.340;6.812;2022-09-13T16:49:26;1.35;;;0.47;;
56331;SDS011;42237;53.340;6.812;2022-09-13T16:51:52;4.25;;;0.77;;
56331;SDS011;42237;53.340;6.812;2022-09-13T16:54:17;5.93;;;0.90;;
56331;SDS011;42237;53.340;6.812;2022-09-13T16:56:43;5.47;;;0.90;;
56331;SDS011;42237;53.340;6.812;2022-09-13T16:59:08;5.47;;;0.75;;
56331;SDS011;42237;53.340;6.812;2022-09-13T17:01:34;4.10;;;1.10;;
56331;SDS011;42237;53.340;6.812;2022-09-13T17:04:00;2.22;;;0.50;;
56331;SDS011;42237;53.340;6.812;2022-09-13T17:06:26;4.70;;;0.73;;
56331;SDS011;42237;53.340;6.812;2022-09-13T17:08:56;2.15;;;0.50;;
56331;SDS011;42237;53.340;6.812;2022-09-13T17:11:28;5.13;;;0.70;;
56331;SDS011;42237;53.340;6.812;2022-09-13T17:13:55;2.88;;;0.57;;
56331;SDS011;42237;53.340;6.812;2022-09-13T17:18:55;3.20;;;0.50;;
56331;SDS011;42237;53.340;6.812;2022-09-13T17:21:22;4.47;;;0.50;;
56331;SDS011;42237;53.340;6.812;2022-09-13T17:23:48;4.50;;;0.70;;
56331;SDS011;42237;53.340;6.812;2022-09-13T17:26:14;5.47;;;1.15;;
56331;SDS011;42237;53.340;6.812;2022-09-13T17:28:40;2.92;;;0.60;;
56331;SDS011;42237;53.340;6.812;2022-09-13T17:31:06;4.38;;;0.70;;
56331;SDS011;42237;53.340;6.812;2022-09-13T17:33:32;5.13;;;0.68;;
56331;SDS011;42237;53.340;6.812;2022-09-13T17:35:58;4.65;;;0.60;;
56331;SDS011;42237;53.340;6.812;2022-09-13T17:38:25;2.97;;;0.82;;
56331;SDS011;42237;53.340;6.812;2022-09-13T17:41:02;3.08;;;0.52;;
56331;SDS011;42237;53.340;6.812;2022-09-13T17:43:29;4.88;;;1.10;;
56331;SDS011;42237;53.340;6.812;2022-09-13T17:45:55;2.08;;;0.57;;
56331;SDS011;42237;53.340;6.812;2022-09-13T17:48:21;3.42;;;1.08;;
56331;SDS011;42237;53.340;6.812;2022-09-13T17:50:47;3.15;;;0.60;;
56331;SDS011;42237;53.340;6.812;2022-09-13T17:53:13;6.53;;;0.95;;
56331;SDS011;42237;53.340;6.812;2022-09-13T17:55:48;4.60;;;0.82;;
56331;SDS011;42237;53.340;6.812;2022-09-13T17:58:14;4.32;;;0.75;;
56331;SDS011;42237;53.340;6.812;2022-09-13T18:00:40;2.65;;;0.52;;
56331;SDS011;42237;53.340;6.812;2022-09-13T18:03:06;5.55;;;0.73;;
56331;SDS011;42237;53.340;6.812;2022-09-13T18:05:32;2.63;;;0.60;;
56331;SDS011;42237;53.340;6.812;2022-09-13T18:07:57;4.53;;;0.65;;
56331;SDS011;42237;53.340;6.812;2022-09-13T18:10:23;2.75;;;0.65;;
56331;SDS011;42237;53.340;6.812;2022-09-13T18:12:49;2.38;;;0.80;;
56331;SDS011;42237;53.340;6.812;2022-09-13T18:15:15;2.03;;;0.70;;
56331;SDS011;42237;53.340;6.812;2022-09-13T18:17:41;3.92;;;0.60;;
56331;SDS011;42237;53.340;6.812;2022-09-13T18:20:06;5.50;;;0.85;;
56331;SDS011;42237;53.340;6.812;2022-09-13T18:22:32;3.65;;;0.60;;
56331;SDS011;42237;53.340;6.812;2022-09-13T18:24:58;3.47;;;0.90;;
56331;SDS011;42237;53.340;6.812;2022-09-13T18:27:23;4.72;;;0.75;;
56331;SDS011;42237;53.340;6.812;2022-09-13T18:29:49;2.42;;;0.57;;
56331;SDS011;42237;53.340;6.812;2022-09-13T18:32:15;3.15;;;0.55;;
56331;SDS011;42237;53.340;6.812;2022-09-13T18:34:41;1.88;;;0.60;;
56331;SDS011;42237;53.340;6.812;2022-09-13T18:37:07;4.40;;;0.65;;
56331;SDS011;42237;53.340;6.812;2022-09-13T18:39:33;1.40;;;0.47;;
56331;SDS011;42237;53.340;6.812;2022-09-13T18:42:00;3.17;;;0.60;;
56331;SDS011;42237;53.340;6.812;2022-09-13T18:44:26;2.03;;;0.70;;
56331;SDS011;42237;53.340;6.812;2022-09-13T18:46:54;3.05;;;0.75;;
56331;SDS011;42237;53.340;6.812;2022-09-13T18:49:22;2.33;;;0.52;;
56331;SDS011;42237;53.340;6.812;2022-09-13T18:51:48;1.05;;;0.45;;